createdAt,value
2016-12-20T00:00:15.306Z,0
2016-12-20T00:01:18.759Z,0
2016-12-20T00:02:22.213Z,0
2016-12-20T00:03:25.669Z,0
2016-12-20T00:04:29.120Z,0
2016-12-20T00:05:32.577Z,0
2016-12-20T00:06:36.030Z,0
2016-12-20T00:07:39.482Z,0
2016-12-20T00:08:42.937Z,0
2016-12-20T00:09:46.392Z,0
2016-12-20T00:10:49.844Z,0
2016-12-20T00:11:53.299Z,0
2016-12-20T00:12:56.754Z,0
2016-12-20T00:14:00.206Z,0
2016-12-20T00:15:03.650Z,0
2016-12-20T00:16:07.104Z,0
2016-12-20T00:17:10.545Z,0
2016-12-20T00:18:13.996Z,0
2016-12-20T00:19:17.448Z,0
2016-12-20T00:20:20.905Z,0
2016-12-20T00:21:24.363Z,0
2016-12-20T00:22:27.810Z,0
2016-12-20T00:23:31.261Z,0
2016-12-20T00:24:34.712Z,0
2016-12-20T00:25:38.165Z,0
2016-12-20T00:26:41.619Z,0
2016-12-20T00:27:45.075Z,0
2016-12-20T00:28:48.527Z,0
2016-12-20T00:29:51.983Z,0
2016-12-20T00:30:55.436Z,0
2016-12-20T00:31:58.890Z,0
2016-12-20T00:33:02.343Z,0
2016-12-20T00:34:05.799Z,0
2016-12-20T00:35:09.251Z,0
2016-12-20T00:36:12.692Z,0
2016-12-20T00:37:16.149Z,0
2016-12-20T00:38:19.591Z,0
2016-12-20T00:39:23.041Z,0
2016-12-20T00:40:26.491Z,0
2016-12-20T00:41:29.940Z,0
2016-12-20T00:42:33.395Z,0
2016-12-20T00:43:36.847Z,0
2016-12-20T00:44:40.301Z,0
2016-12-20T00:45:43.756Z,0
2016-12-20T00:46:47.209Z,0
2016-12-20T01:03:54.496Z,0
2016-12-20T01:04:57.947Z,0
2016-12-20T01:06:01.404Z,0
2016-12-20T01:07:04.855Z,0
2016-12-20T01:08:08.303Z,0
2016-12-20T01:09:11.758Z,0
2016-12-20T01:10:15.210Z,0
2016-12-20T01:11:18.654Z,0
2016-12-20T01:12:22.106Z,0
2016-12-20T01:13:25.566Z,0
2016-12-20T01:14:29.012Z,0
2016-12-20T01:15:32.460Z,0
2016-12-20T01:16:35.907Z,0
2016-12-20T01:17:39.363Z,0
2016-12-20T01:18:42.808Z,0
2016-12-20T01:19:46.261Z,0
2016-12-20T01:20:49.723Z,0
2016-12-20T01:21:53.169Z,0
2016-12-20T01:22:56.622Z,0
2016-12-20T01:24:00.079Z,0
2016-12-20T01:25:03.531Z,0
2016-12-20T01:26:06.986Z,0
2016-12-20T01:27:10.441Z,0
2016-12-20T01:28:13.893Z,0
2016-12-20T01:29:17.337Z,0
2016-12-20T01:30:20.794Z,0
2016-12-20T01:31:24.233Z,0
2016-12-20T01:32:27.695Z,0
2016-12-20T01:33:31.138Z,0
2016-12-20T01:34:34.590Z,0
2016-12-20T01:35:38.045Z,0
2016-12-20T01:36:41.497Z,0
2016-12-20T01:37:44.945Z,0
2016-12-20T01:38:48.400Z,0
2016-12-20T01:39:51.853Z,0
2016-12-20T01:40:55.308Z,0
2016-12-20T01:41:58.761Z,0
2016-12-20T01:43:02.214Z,0
2016-12-20T01:44:05.668Z,0
2016-12-20T01:45:09.124Z,0
2016-12-20T01:46:12.577Z,0
2016-12-20T01:47:16.032Z,0
2016-12-20T01:48:19.485Z,0
2016-12-20T01:49:22.938Z,0
2016-12-20T01:50:26.391Z,0
2016-12-20T01:51:29.848Z,0
2016-12-20T01:52:33.299Z,0
2016-12-20T01:53:36.754Z,0
2016-12-20T01:54:40.210Z,0
2016-12-20T01:55:43.662Z,0
2016-12-20T01:56:47.116Z,0
2016-12-20T01:57:50.571Z,0
2016-12-20T01:58:54.025Z,0
2016-12-20T01:59:57.478Z,0
2016-12-20T02:01:00.934Z,0
2016-12-20T02:02:04.385Z,0
2016-12-20T02:03:07.828Z,0
2016-12-20T02:04:11.283Z,0
2016-12-20T02:05:14.720Z,0
2016-12-20T02:06:18.175Z,0
2016-12-20T02:07:21.625Z,0
2016-12-20T02:08:25.074Z,0
2016-12-20T02:09:28.529Z,0
2016-12-20T02:10:31.982Z,0
2016-12-20T02:11:35.436Z,0
2016-12-20T02:12:38.892Z,0
2016-12-20T02:13:42.344Z,0
2016-12-20T02:14:45.798Z,0
2016-12-20T02:15:49.253Z,0
2016-12-20T02:16:52.707Z,0
2016-12-20T02:17:56.164Z,0
2016-12-20T02:18:59.616Z,0
2016-12-20T02:20:03.068Z,0
2016-12-20T02:21:06.522Z,0
2016-12-20T02:22:09.978Z,0
2016-12-20T02:23:13.429Z,0
2016-12-20T02:24:16.875Z,0
2016-12-20T02:25:20.326Z,0
2016-12-20T02:26:23.768Z,0
2016-12-20T02:27:27.220Z,0
2016-12-20T02:28:30.666Z,0
2016-12-20T02:29:34.119Z,0
2016-12-20T02:30:37.577Z,0
2016-12-20T02:31:41.027Z,0
2016-12-20T02:32:44.480Z,0
2016-12-20T02:33:47.936Z,0
2016-12-20T02:34:51.388Z,0
2016-12-20T02:35:54.833Z,0
2016-12-20T02:36:58.285Z,0
2016-12-20T02:38:01.727Z,0
2016-12-20T02:39:05.177Z,0
2016-12-20T02:40:08.624Z,0
2016-12-20T02:41:12.068Z,0
2016-12-20T02:42:15.522Z,0
2016-12-20T02:43:18.964Z,0
2016-12-20T02:44:22.412Z,0
2016-12-20T02:45:25.861Z,0
2016-12-20T02:46:29.314Z,0
2016-12-20T02:47:32.769Z,0
2016-12-20T02:48:36.221Z,0
2016-12-20T02:49:39.663Z,0
2016-12-20T02:50:43.118Z,0
2016-12-20T02:51:46.561Z,0
2016-12-20T02:52:50.009Z,0
2016-12-20T02:53:53.457Z,0
2016-12-20T02:54:56.906Z,0
2016-12-20T02:56:00.354Z,0
2016-12-20T02:57:03.795Z,0
2016-12-20T02:58:07.244Z,0
2016-12-20T02:59:10.692Z,0
2016-12-20T03:00:14.146Z,0
2016-12-20T03:01:17.602Z,0
2016-12-20T03:02:21.054Z,0
2016-12-20T03:03:24.508Z,0
2016-12-20T03:04:27.964Z,0
2016-12-20T03:05:31.415Z,0
2016-12-20T03:06:34.870Z,0
2016-12-20T03:07:38.324Z,0
2016-12-20T03:08:41.777Z,0
2016-12-20T03:09:45.221Z,0
2016-12-20T03:10:48.675Z,0
2016-12-20T03:11:52.116Z,0
2016-12-20T03:12:55.565Z,0
2016-12-20T03:13:59.012Z,0
2016-12-20T03:15:02.456Z,0
2016-12-20T03:16:05.912Z,0
2016-12-20T03:17:09.374Z,0
2016-12-20T03:18:12.818Z,0
2016-12-20T03:19:16.272Z,0
2016-12-20T03:20:19.713Z,0
2016-12-20T03:21:23.170Z,0
2016-12-20T03:22:26.611Z,0
2016-12-20T03:23:30.064Z,0
2016-12-20T03:24:33.522Z,0
2016-12-20T03:25:36.971Z,0
2016-12-20T03:26:40.426Z,0
2016-12-20T03:27:43.880Z,0
2016-12-20T03:28:47.333Z,0
2016-12-20T03:29:50.777Z,0
2016-12-20T03:30:54.230Z,0
2016-12-20T03:31:57.668Z,0
2016-12-20T03:33:01.117Z,0
2016-12-20T03:34:04.568Z,0
2016-12-20T03:35:08.023Z,0
2016-12-20T03:36:11.479Z,0
2016-12-20T03:37:14.931Z,0
2016-12-20T03:38:18.385Z,0
2016-12-20T03:39:21.839Z,0
2016-12-20T03:40:25.292Z,0
2016-12-20T03:41:28.746Z,0
2016-12-20T03:42:32.202Z,0
2016-12-20T03:43:35.654Z,0
2016-12-20T03:44:39.108Z,0
2016-12-20T03:45:42.562Z,0
2016-12-20T03:46:46.015Z,0
2016-12-20T03:47:49.470Z,0
2016-12-20T03:48:52.924Z,0
2016-12-20T03:49:56.378Z,0
2016-12-20T03:50:59.830Z,0
2016-12-20T03:52:03.287Z,0
2016-12-20T03:53:06.738Z,0
2016-12-20T03:54:10.182Z,0
2016-12-20T03:55:13.638Z,0
2016-12-20T03:56:17.080Z,0
2016-12-20T03:57:20.540Z,0
2016-12-20T03:58:23.983Z,0
2016-12-20T03:59:27.435Z,0
2016-12-20T04:00:30.892Z,0
2016-12-20T04:01:34.343Z,0
2016-12-20T04:02:37.797Z,0
2016-12-20T04:03:41.253Z,0
2016-12-20T04:04:44.708Z,0
2016-12-20T04:05:48.151Z,0
2016-12-20T04:06:51.607Z,0
2016-12-20T04:07:55.059Z,0
2016-12-20T04:08:58.503Z,0
2016-12-20T04:10:01.957Z,0
2016-12-20T04:11:05.401Z,0
2016-12-20T04:12:08.861Z,0
2016-12-20T04:13:12.309Z,0
2016-12-20T04:14:15.755Z,0
2016-12-20T04:15:19.211Z,0
2016-12-20T04:16:22.660Z,0
2016-12-20T04:17:26.110Z,0
2016-12-20T04:18:29.566Z,0
2016-12-20T04:19:33.019Z,0
2016-12-20T04:20:36.463Z,0
2016-12-20T04:21:39.917Z,0
2016-12-20T04:22:43.358Z,0
2016-12-20T04:23:46.809Z,0
2016-12-20T04:24:50.257Z,0
2016-12-20T04:25:53.707Z,0
2016-12-20T04:26:57.163Z,0
2016-12-20T04:28:00.615Z,0
2016-12-20T04:29:04.069Z,0
2016-12-20T04:30:07.525Z,0
2016-12-20T04:31:10.977Z,0
2016-12-20T04:32:14.418Z,0
2016-12-20T04:33:17.879Z,0
2016-12-20T04:34:21.318Z,0
2016-12-20T04:35:24.775Z,0
2016-12-20T04:36:28.223Z,0
2016-12-20T04:37:31.672Z,0
2016-12-20T04:38:35.128Z,0
2016-12-20T04:39:38.580Z,0
2016-12-20T04:40:42.033Z,0
2016-12-20T04:41:45.488Z,0
2016-12-20T04:42:48.941Z,0
2016-12-20T04:43:52.389Z,0
2016-12-20T04:44:55.844Z,0
2016-12-20T04:45:59.295Z,0
2016-12-20T04:47:02.751Z,0
2016-12-20T04:48:06.205Z,0
2016-12-20T04:49:09.658Z,0
2016-12-20T04:50:13.112Z,0
2016-12-20T04:51:16.568Z,0
2016-12-20T04:52:20.020Z,0
2016-12-20T04:53:23.475Z,0
2016-12-20T04:54:26.939Z,0
2016-12-20T04:55:30.382Z,0
2016-12-20T04:56:33.836Z,0
2016-12-20T04:57:37.293Z,0
2016-12-20T04:58:40.744Z,0
2016-12-20T04:59:44.197Z,0
2016-12-20T05:00:47.653Z,0
2016-12-20T05:01:51.105Z,0
2016-12-20T05:02:54.559Z,0
2016-12-20T05:03:58.013Z,0
2016-12-20T05:05:01.466Z,0
2016-12-20T05:06:04.921Z,0
2016-12-20T05:07:08.376Z,0
2016-12-20T05:08:11.827Z,0
2016-12-20T05:09:15.282Z,0
2016-12-20T05:10:18.738Z,0
2016-12-20T05:11:22.192Z,0
2016-12-20T05:12:25.644Z,0
2016-12-20T05:13:29.098Z,0
2016-12-20T05:14:32.563Z,0
2016-12-20T05:15:36.012Z,0
2016-12-20T05:16:39.467Z,0
2016-12-20T05:17:42.920Z,0
2016-12-20T05:18:46.374Z,0
2016-12-20T05:19:49.831Z,0
2016-12-20T05:20:53.282Z,0
2016-12-20T05:21:56.729Z,0
2016-12-20T05:23:00.184Z,0
2016-12-20T05:24:03.636Z,0
2016-12-20T05:25:07.091Z,0
2016-12-20T05:26:10.553Z,0
2016-12-20T05:27:14.004Z,0
2016-12-20T05:28:17.452Z,0
2016-12-20T05:29:20.907Z,0
2016-12-20T05:30:24.359Z,0
2016-12-20T05:31:27.802Z,0
2016-12-20T05:32:31.258Z,0
2016-12-20T05:33:34.700Z,5
2016-12-20T05:34:38.154Z,5
2016-12-20T05:35:41.601Z,5
2016-12-20T05:36:45.049Z,5
2016-12-20T05:37:48.504Z,5
2016-12-20T05:38:51.957Z,5
2016-12-20T05:39:55.411Z,5
2016-12-20T05:40:58.866Z,5
2016-12-20T05:42:02.318Z,5
2016-12-20T05:43:05.773Z,5
2016-12-20T05:44:09.230Z,5
2016-12-20T05:45:12.679Z,5
2016-12-20T05:46:16.134Z,5
2016-12-20T05:47:19.577Z,5
2016-12-20T05:48:23.020Z,5
2016-12-20T05:49:26.471Z,5
2016-12-20T05:50:29.924Z,5
2016-12-20T05:51:33.377Z,5
2016-12-20T05:52:36.830Z,5
2016-12-20T05:53:40.298Z,5
2016-12-20T05:54:43.745Z,5
2016-12-20T05:55:47.205Z,5
2016-12-20T05:56:50.651Z,5
2016-12-20T05:57:54.100Z,5
2016-12-20T05:58:57.570Z,5
2016-12-20T06:00:01.027Z,5
2016-12-20T06:01:04.470Z,5
2016-12-20T06:02:07.928Z,5
2016-12-20T06:03:11.377Z,5
2016-12-20T06:04:14.823Z,5
2016-12-20T06:05:18.289Z,5
2016-12-20T06:06:21.731Z,5
2016-12-20T06:07:25.185Z,5
2016-12-20T06:08:28.638Z,5
2016-12-20T06:11:03.017Z,5
2016-12-20T06:12:06.465Z,5
2016-12-20T06:13:09.924Z,5
2016-12-20T06:14:13.361Z,5
2016-12-20T06:15:16.819Z,5
2016-12-20T06:16:20.259Z,5
2016-12-20T06:17:23.703Z,5
2016-12-20T06:19:57.515Z,5
2016-12-20T06:21:00.968Z,5
2016-12-20T06:22:04.428Z,5
2016-12-20T06:23:07.867Z,5
2016-12-20T06:24:11.340Z,5
2016-12-20T06:25:14.791Z,5
2016-12-20T06:26:18.235Z,5
2016-12-20T06:27:21.689Z,5
2016-12-20T06:28:25.134Z,5
2016-12-20T06:29:28.586Z,5
2016-12-20T06:30:32.051Z,5
2016-12-20T06:31:35.503Z,5
2016-12-20T06:32:38.955Z,5
2016-12-20T06:33:42.413Z,5
2016-12-20T06:34:45.840Z,5
2016-12-20T06:35:49.298Z,5
2016-12-20T06:36:52.759Z,5
2016-12-20T06:37:56.203Z,5
2016-12-20T06:38:59.653Z,5
2016-12-20T06:40:03.102Z,5
2016-12-20T06:41:06.546Z,5
2016-12-20T06:42:10.009Z,5
2016-12-20T06:43:13.466Z,5
2016-12-20T06:44:16.929Z,5
2016-12-20T06:45:20.381Z,5
2016-12-20T06:47:54.883Z,5
2016-12-20T06:48:58.323Z,5
2016-12-20T06:50:01.788Z,5
2016-12-20T06:51:05.252Z,5
2016-12-20T06:52:08.680Z,5
2016-12-20T06:53:12.134Z,5
2016-12-20T06:54:15.600Z,5
2016-12-20T06:55:19.039Z,5
2016-12-20T06:56:22.492Z,5
2016-12-20T06:57:25.943Z,5
2016-12-20T07:00:00.257Z,5
2016-12-20T07:01:03.716Z,5
2016-12-20T07:02:07.167Z,5
2016-12-20T07:03:10.606Z,5
2016-12-20T07:04:14.057Z,5
2016-12-20T07:05:17.499Z,5
2016-12-20T07:06:20.956Z,5
2016-12-20T07:07:24.422Z,5
2016-12-20T07:09:58.174Z,5
2016-12-20T07:11:01.642Z,5
2016-12-20T07:12:05.084Z,5
2016-12-20T07:13:08.529Z,5
2016-12-20T07:14:11.964Z,5
2016-12-20T07:15:15.423Z,5
2016-12-20T07:16:18.863Z,5
2016-12-20T07:17:22.350Z,5
2016-12-20T07:18:25.817Z,5
2016-12-20T07:19:29.265Z,5
2016-12-20T07:20:32.713Z,5
2016-12-20T07:21:36.175Z,5
2016-12-20T07:24:10.474Z,5
2016-12-20T07:25:13.912Z,5
2016-12-20T07:26:17.387Z,5
2016-12-20T07:27:20.825Z,5
2016-12-20T07:28:24.269Z,5
2016-12-20T07:29:27.732Z,5
2016-12-20T07:30:31.752Z,5
2016-12-20T07:31:35.206Z,5
2016-12-20T07:32:38.668Z,5
2016-12-20T07:33:42.099Z,5
2016-12-20T07:34:45.559Z,5
2016-12-20T07:35:49.012Z,5
2016-12-20T07:38:23.370Z,5
2016-12-20T07:39:26.817Z,5
2016-12-20T07:40:30.269Z,5
2016-12-20T07:41:33.724Z,5
2016-12-20T07:42:37.163Z,5
2016-12-20T07:43:40.593Z,5
2016-12-20T07:46:12.635Z,5
2016-12-20T07:47:16.089Z,5
2016-12-20T07:48:19.541Z,5
2016-12-20T07:49:22.999Z,5
2016-12-20T07:50:26.448Z,5
2016-12-20T07:51:29.911Z,5
2016-12-20T07:52:33.363Z,5
2016-12-20T07:53:36.820Z,5
2016-12-20T07:54:40.275Z,5
2016-12-20T07:55:43.735Z,0
2016-12-20T07:56:47.187Z,5
2016-12-20T07:59:20.710Z,5
2016-12-20T08:00:24.162Z,5
2016-12-20T08:01:27.618Z,5
2016-12-20T08:04:02.895Z,5
2016-12-20T08:05:06.359Z,5
2016-12-20T08:06:09.822Z,5
2016-12-20T08:07:13.274Z,5
2016-12-20T08:08:16.736Z,5
2016-12-20T08:09:20.180Z,5
2016-12-20T08:10:23.623Z,5
2016-12-20T08:11:27.079Z,5
2016-12-20T08:12:30.556Z,5
2016-12-20T08:13:34.018Z,5
2016-12-20T08:14:37.467Z,5
2016-12-20T08:15:40.920Z,5
2016-12-20T08:16:44.384Z,5
2016-12-20T08:17:47.833Z,5
2016-12-20T08:18:51.283Z,5
2016-12-20T08:19:54.741Z,5
2016-12-20T08:20:58.191Z,5
2016-12-20T08:22:01.672Z,5
2016-12-20T08:23:05.135Z,5
2016-12-20T08:24:08.594Z,5
2016-12-20T08:25:12.067Z,5
2016-12-20T08:26:15.525Z,5
2016-12-20T08:28:47.558Z,5
2016-12-20T08:29:51.019Z,5
2016-12-20T08:30:54.459Z,5
2016-12-20T08:31:57.914Z,5
2016-12-20T08:33:01.365Z,5
2016-12-20T08:34:04.817Z,5
2016-12-20T08:35:08.276Z,5
2016-12-20T08:36:11.731Z,5
2016-12-20T08:37:15.188Z,5
2016-12-20T08:38:18.655Z,5
2016-12-20T08:39:22.085Z,5
2016-12-20T08:40:25.548Z,5
2016-12-20T08:41:29.001Z,5
2016-12-20T08:42:32.455Z,5
2016-12-20T08:43:35.906Z,5
2016-12-20T08:44:39.373Z,5
2016-12-20T08:45:42.817Z,5
2016-12-20T08:46:46.277Z,5
2016-12-20T08:47:49.740Z,5
2016-12-20T08:48:53.198Z,5
2016-12-20T08:49:58.127Z,5
2016-12-20T08:51:00.089Z,5
2016-12-20T08:52:03.576Z,5
2016-12-20T08:53:07.030Z,5
2016-12-20T08:54:10.489Z,5
2016-12-20T08:55:13.935Z,5
2016-12-20T08:56:17.385Z,5
2016-12-20T08:57:20.831Z,5
2016-12-20T08:58:24.299Z,5
2016-12-20T08:59:27.755Z,5
2016-12-20T09:00:31.193Z,5
2016-12-20T09:01:34.647Z,5
2016-12-20T09:02:38.104Z,5
2016-12-20T09:03:41.555Z,5
2016-12-20T09:04:45.010Z,5
2016-12-20T09:05:48.452Z,5
2016-12-20T09:06:51.901Z,5
2016-12-20T09:07:55.365Z,5
2016-12-20T09:08:58.810Z,5
2016-12-20T09:10:02.263Z,5
2016-12-20T09:12:34.345Z,5
2016-12-20T09:13:37.800Z,5
2016-12-20T09:14:41.240Z,5
2016-12-20T09:15:44.721Z,5
2016-12-20T09:16:48.161Z,5
2016-12-20T09:17:51.595Z,5
2016-12-20T09:18:55.053Z,5
2016-12-20T09:19:58.519Z,5
2016-12-20T09:21:01.967Z,5
2016-12-20T09:22:05.410Z,5
2016-12-20T09:23:08.894Z,5
2016-12-20T09:24:12.867Z,5
2016-12-20T09:26:44.309Z,5
2016-12-20T09:27:47.764Z,5
2016-12-20T09:28:51.221Z,5
2016-12-20T09:29:54.672Z,5
2016-12-20T09:30:58.125Z,5
2016-12-20T09:33:32.852Z,5
2016-12-20T09:34:36.340Z,5
2016-12-20T09:35:39.792Z,5
2016-12-20T09:36:43.219Z,5
2016-12-20T09:37:46.676Z,5
2016-12-20T09:40:19.876Z,5
2016-12-20T09:41:23.338Z,5
2016-12-20T09:42:26.783Z,5
2016-12-20T09:43:30.245Z,5
2016-12-20T09:44:33.699Z,5
2016-12-20T09:45:37.155Z,5
2016-12-20T09:46:40.616Z,5
2016-12-20T09:47:44.079Z,5
2016-12-20T09:48:47.537Z,5
2016-12-20T09:49:50.988Z,5
2016-12-20T09:50:54.441Z,5
2016-12-20T09:51:57.897Z,5
2016-12-20T09:53:01.345Z,5
2016-12-20T09:54:04.807Z,5
2016-12-20T09:55:08.283Z,5
2016-12-20T09:56:11.737Z,5
2016-12-20T09:59:54.049Z,5
2016-12-20T10:00:57.504Z,5
2016-12-20T10:02:00.962Z,5
2016-12-20T10:03:04.408Z,5
2016-12-20T10:05:37.782Z,5
2016-12-20T10:06:41.252Z,5
2016-12-20T10:07:44.713Z,5
2016-12-20T10:10:17.869Z,5
2016-12-20T10:11:21.310Z,5
2016-12-20T10:12:24.783Z,5
2016-12-20T10:14:58.750Z,5
2016-12-20T10:16:02.204Z,5
2016-12-20T10:17:05.651Z,5
2016-12-20T10:18:09.108Z,5
2016-12-20T10:19:12.555Z,5
2016-12-20T10:20:16.009Z,5
2016-12-20T10:21:19.475Z,5
2016-12-20T10:22:22.930Z,5
2016-12-20T10:27:57.116Z,5
2016-12-20T10:29:00.558Z,5
2016-12-20T10:30:04.011Z,5
2016-12-20T10:31:07.454Z,5
2016-12-20T10:32:10.909Z,5
2016-12-20T10:33:14.366Z,5
2016-12-20T10:34:17.817Z,5
2016-12-20T10:35:21.265Z,5
2016-12-20T10:36:24.730Z,5
2016-12-20T10:37:28.191Z,5
2016-12-20T10:38:32.136Z,5
2016-12-20T10:39:35.577Z,5
2016-12-20T10:40:39.031Z,5
2016-12-20T10:41:42.479Z,5
2016-12-20T10:42:45.934Z,5
2016-12-20T10:43:49.381Z,5
2016-12-20T10:44:52.842Z,5
2016-12-20T10:45:57.185Z,5
2016-12-20T10:47:00.650Z,5
2016-12-20T10:48:04.110Z,5
2016-12-20T10:49:07.563Z,5
2016-12-20T10:50:10.994Z,5
2016-12-20T10:52:42.786Z,5
2016-12-20T10:53:46.228Z,5
2016-12-20T10:54:49.664Z,5
2016-12-20T10:55:53.121Z,5
2016-12-20T10:56:56.582Z,5
2016-12-20T10:58:00.042Z,5
2016-12-20T10:59:03.513Z,5
2016-12-20T11:00:06.979Z,5
2016-12-20T11:01:10.436Z,5
2016-12-20T11:02:13.869Z,5
2016-12-20T11:04:45.556Z,5
2016-12-20T11:08:45.443Z,5
2016-12-20T11:09:48.907Z,5
2016-12-20T11:10:52.352Z,5
2016-12-20T11:11:55.820Z,5
2016-12-20T11:12:59.270Z,5
2016-12-20T11:14:02.756Z,5
2016-12-20T11:15:06.203Z,5
2016-12-20T11:16:09.661Z,5
2016-12-20T11:17:13.115Z,5
2016-12-20T11:18:16.564Z,5
2016-12-20T11:19:20.020Z,5
2016-12-20T11:20:24.360Z,5
2016-12-20T11:21:26.979Z,5
2016-12-20T11:22:30.441Z,5
2016-12-20T11:23:33.905Z,5
2016-12-20T11:24:37.377Z,5
2016-12-20T11:25:40.811Z,5
2016-12-20T11:26:44.263Z,5
2016-12-20T11:27:47.724Z,5
2016-12-20T11:28:51.174Z,5
2016-12-20T11:29:54.626Z,5
2016-12-20T11:30:58.079Z,5
2016-12-20T11:32:01.547Z,5
2016-12-20T11:33:05.008Z,5
2016-12-20T11:34:08.454Z,0
2016-12-20T11:36:34.458Z,25
2016-12-20T11:39:09.311Z,25
2016-12-20T11:40:13.310Z,25
2016-12-20T11:41:16.267Z,25
2016-12-20T11:42:19.715Z,25
2016-12-20T11:43:24.917Z,30
2016-12-20T11:44:28.365Z,30
2016-12-20T11:45:31.820Z,30
2016-12-20T11:46:35.270Z,30
2016-12-20T11:47:38.710Z,30
2016-12-20T11:48:42.168Z,30
2016-12-20T11:49:45.627Z,30
2016-12-20T11:50:49.085Z,30
2016-12-20T11:51:52.530Z,30
2016-12-20T11:52:55.972Z,35
2016-12-20T11:53:59.420Z,35
2016-12-20T11:55:02.862Z,35
2016-12-20T11:56:06.319Z,35
2016-12-20T11:57:09.745Z,35
2016-12-20T11:58:13.199Z,35
2016-12-20T11:59:16.660Z,35
2016-12-20T12:00:20.100Z,35
2016-12-20T12:01:23.558Z,40
2016-12-20T12:02:27.009Z,40
2016-12-20T12:03:30.448Z,40
2016-12-20T12:04:33.901Z,40
2016-12-20T12:05:37.374Z,40
2016-12-20T12:06:40.832Z,40
2016-12-20T12:07:44.307Z,40
2016-12-20T12:08:47.764Z,40
2016-12-20T12:09:51.208Z,40
2016-12-20T12:10:54.667Z,40
2016-12-20T12:11:58.136Z,45
2016-12-20T12:13:01.603Z,45
2016-12-20T12:14:05.038Z,45
2016-12-20T12:15:08.492Z,45
2016-12-20T12:16:11.938Z,45
2016-12-20T12:17:15.372Z,45
2016-12-20T12:18:18.790Z,45
2016-12-20T12:19:22.235Z,45
2016-12-20T12:20:25.677Z,45
2016-12-20T12:21:29.114Z,50
2016-12-20T12:22:32.563Z,50
2016-12-20T12:23:36.018Z,50
2016-12-20T12:24:39.476Z,50
2016-12-20T12:25:42.923Z,50
2016-12-20T12:26:46.377Z,50
2016-12-20T12:27:49.830Z,50
2016-12-20T12:28:53.276Z,50
2016-12-20T12:29:56.740Z,55
2016-12-20T12:31:00.156Z,55
2016-12-20T12:32:03.612Z,55
2016-12-20T12:33:07.319Z,55
2016-12-20T12:34:10.776Z,55
2016-12-20T12:35:14.237Z,55
2016-12-20T12:36:17.683Z,55
2016-12-20T12:37:21.136Z,55
2016-12-20T12:38:24.581Z,55
2016-12-20T12:39:28.026Z,60
2016-12-20T12:40:31.485Z,60
2016-12-20T12:41:34.935Z,60
2016-12-20T12:42:38.384Z,60
2016-12-20T12:43:41.848Z,60
2016-12-20T12:44:45.300Z,60
2016-12-20T12:45:48.762Z,60
2016-12-20T12:46:52.225Z,60
2016-12-20T12:47:55.674Z,60
2016-12-20T12:48:59.125Z,60
2016-12-20T12:50:02.577Z,65
2016-12-20T12:51:06.027Z,65
2016-12-20T12:52:09.508Z,65
2016-12-20T12:53:12.951Z,10
2016-12-20T12:54:16.390Z,10
2016-12-20T12:56:50.151Z,10
2016-12-20T12:57:53.628Z,10
2016-12-20T12:58:57.115Z,15
2016-12-20T13:00:00.576Z,10
2016-12-20T13:01:04.038Z,10
2016-12-20T13:03:37.236Z,15
2016-12-20T13:04:40.689Z,15
2016-12-20T13:05:44.140Z,10
2016-12-20T13:06:47.590Z,5
2016-12-20T13:07:51.047Z,10
2016-12-20T13:08:54.521Z,10
2016-12-20T13:09:57.986Z,15
2016-12-20T13:11:01.439Z,15
2016-12-20T13:12:04.891Z,15
2016-12-20T13:13:08.349Z,15
2016-12-20T13:14:11.795Z,15
2016-12-20T13:15:15.252Z,15
2016-12-20T13:16:18.717Z,15
2016-12-20T13:17:22.165Z,15
2016-12-20T13:18:25.610Z,15
2016-12-20T13:19:29.075Z,15
2016-12-20T13:20:32.530Z,15
2016-12-20T13:21:35.980Z,15
2016-12-20T13:22:39.436Z,10
2016-12-20T13:23:42.896Z,25
2016-12-20T13:24:46.347Z,25
2016-12-20T13:25:49.812Z,25
2016-12-20T13:26:53.268Z,25
2016-12-20T13:27:56.713Z,25
2016-12-20T13:29:00.164Z,25
2016-12-20T13:30:03.646Z,25
2016-12-20T13:31:07.116Z,25
2016-12-20T13:32:10.570Z,25
2016-12-20T13:33:14.018Z,25
2016-12-20T13:34:17.497Z,25
2016-12-20T13:35:20.956Z,25
2016-12-20T13:36:24.386Z,25
2016-12-20T13:37:27.828Z,25
2016-12-20T13:38:31.275Z,25
2016-12-20T13:41:04.992Z,25
2016-12-20T13:43:38.171Z,10
2016-12-20T13:44:41.630Z,5
2016-12-20T13:45:45.080Z,5
2016-12-20T13:46:48.538Z,5
2016-12-20T13:47:51.986Z,15
2016-12-20T13:48:55.438Z,25
2016-12-20T13:49:58.902Z,25
2016-12-20T13:51:02.350Z,15
2016-12-20T13:52:05.798Z,15
2016-12-20T13:53:09.256Z,20
2016-12-20T13:54:12.727Z,25
2016-12-20T13:55:16.196Z,15
2016-12-20T13:56:19.649Z,15
2016-12-20T13:57:23.109Z,20
2016-12-20T13:58:27.085Z,15
2016-12-20T13:59:30.525Z,10
2016-12-20T14:00:33.991Z,15
2016-12-20T14:03:07.152Z,20
2016-12-20T14:04:11.441Z,20
2016-12-20T14:05:15.703Z,15
2016-12-20T14:07:47.996Z,5
2016-12-20T14:08:51.438Z,5
2016-12-20T14:09:54.893Z,5
2016-12-20T14:10:58.347Z,5
2016-12-20T14:12:01.796Z,10
2016-12-20T14:13:05.262Z,10
2016-12-20T14:14:08.681Z,10
2016-12-20T14:15:12.134Z,5
2016-12-20T14:16:15.581Z,5
2016-12-20T14:17:19.028Z,5
2016-12-20T14:18:22.495Z,5
2016-12-20T14:19:25.941Z,5
2016-12-20T14:20:29.392Z,5
2016-12-20T14:21:32.829Z,5
2016-12-20T14:22:36.263Z,5
2016-12-20T14:23:39.732Z,5
2016-12-20T14:24:43.194Z,10
2016-12-20T14:25:46.665Z,10
2016-12-20T14:26:50.126Z,15
2016-12-20T14:27:53.583Z,15
2016-12-20T14:28:57.062Z,15
2016-12-20T14:30:00.518Z,10
2016-12-20T14:31:03.973Z,10
2016-12-20T14:33:36.060Z,10
2016-12-20T14:36:10.040Z,10
2016-12-20T14:37:13.510Z,10
2016-12-20T14:38:17.046Z,10
2016-12-20T14:39:20.502Z,15
2016-12-20T14:41:54.873Z,15
2016-12-20T14:42:58.321Z,15
2016-12-20T14:44:01.782Z,15
2016-12-20T14:45:05.230Z,10
2016-12-20T14:46:08.680Z,10
2016-12-20T14:47:12.127Z,10
2016-12-20T14:48:15.577Z,10
2016-12-20T14:49:19.027Z,10
2016-12-20T14:50:22.487Z,10
2016-12-20T14:51:25.942Z,10
2016-12-20T14:52:29.397Z,10
2016-12-20T14:53:32.849Z,10
2016-12-20T14:54:36.302Z,10
2016-12-20T14:55:39.754Z,10
2016-12-20T14:56:43.215Z,10
2016-12-20T14:57:46.661Z,10
2016-12-20T14:58:50.122Z,10
2016-12-20T14:59:53.581Z,0
2016-12-20T15:00:57.062Z,0
